Time;durP1;ratioP1;P1;durP2;ratioP2;P2;SDS_P1;SDS_P2;PMS_P1;PMS_P2;Temp;Humidity;BMP_temperature;BMP_pressure;BME280_temperature;BME280_humidity;BME280_pressure;Samples;Min_cycle;Max_cycle;Signal;HPM_P1;HPM_P2
2021/09/10 00:01:02;;;;;;;0.40;0.20;;;20.80;1.00;;;;;;5055311;28;20206;-69
2021/09/10 00:03:28;;;;;;;3.70;1.50;;;20.70;1.00;;;;;;5055223;28;20180;-69
2021/09/10 00:05:53;;;;;;;0.60;0.57;;;20.70;1.00;;;;;;5055176;28;20622;-72
2021/09/10 00:08:19;;;;;;;0.70;0.50;;;20.70;1.00;;;;;;5053693;28;20185;-69
2021/09/10 00:10:44;;;;;;;0.40;0.10;;;20.80;1.00;;;;;;5055036;28;20191;-69
2021/09/10 00:13:10;;;;;;;0.50;0.30;;;20.70;1.00;;;;;;5054888;28;20185;-69
2021/09/10 00:15:36;;;;;;;0.40;0.20;;;20.80;1.00;;;;;;5054969;28;20191;-69
2021/09/10 00:18:01;;;;;;;0.40;0.10;;;20.90;1.00;;;;;;5054911;28;20204;-69
2021/09/10 00:20:27;;;;;;;0.40;0.20;;;21.00;1.00;;;;;;5054783;28;20185;-69
2021/09/10 00:22:52;;;;;;;0.60;0.40;;;21.00;99.90;;;;;;5054597;28;20267;-69
2021/09/10 00:25:18;;;;;;;0.40;0.20;;;21.20;99.90;;;;;;5054615;28;20188;-69
2021/09/10 00:27:43;;;;;;;0.50;0.20;;;21.20;99.90;;;;;;5054650;28;20271;-69
2021/09/10 00:30:10;;;;;;;0.60;0.30;;;21.30;99.90;;;;;;5054504;28;20181;-69
2021/09/10 00:32:35;;;;;;;0.40;0.20;;;21.10;99.90;;;;;;5054318;28;20204;-69
2021/09/10 00:35:01;;;;;;;0.40;0.20;;;20.80;1.00;;;;;;5054534;28;20423;-69
2021/09/10 00:37:26;;;;;;;0.40;0.20;;;20.70;1.00;;;;;;5054210;28;20187;-69
2021/09/10 00:39:52;;;;;;;1.47;1.37;;;20.90;1.00;;;;;;5054462;28;20191;-69
2021/09/10 00:42:17;;;;;;;1.60;1.50;;;20.80;1.00;;;;;;5054313;28;20308;-69
2021/09/10 00:44:43;;;;;;;0.40;0.20;;;20.70;1.00;;;;;;5054412;28;20199;-69
2021/09/10 00:47:09;;;;;;;0.40;0.20;;;20.80;1.00;;;;;;5054385;28;20181;-69
2021/09/10 00:49:35;;;;;;;0.40;0.10;;;21.00;1.00;;;;;;5054425;28;20234;-69
2021/09/10 00:52:01;;;;;;;0.40;0.20;;;21.20;1.00;;;;;;5054265;28;20255;-69
2021/09/10 00:54:26;;;;;;;0.60;0.60;;;21.30;1.00;;;;;;5054288;28;20447;-69
2021/09/10 00:56:52;;;;;;;0.40;0.20;;;21.40;99.90;;;;;;5054376;28;20177;-72
2021/09/10 00:59:17;;;;;;;0.40;0.20;;;21.40;99.90;;;;;;5053962;28;20197;-73
2021/09/10 01:01:44;;;;;;;0.40;0.20;;;21.40;99.90;;;;;;5054083;28;20209;-69
2021/09/10 01:04:09;;;;;;;0.40;0.10;;;21.40;99.90;;;;;;5054128;28;20501;-69
2021/09/10 01:06:35;;;;;;;0.40;0.10;;;21.40;99.90;;;;;;5053887;28;20420;-69
2021/09/10 01:09:01;;;;;;;0.40;0.20;;;21.40;99.90;;;;;;5053999;28;20617;-69
2021/09/10 01:11:29;;;;;;;0.40;0.20;;;21.40;99.90;;;;;;5054058;28;20430;-71
2021/09/10 01:13:55;;;;;;;0.40;0.20;;;21.40;99.90;;;;;;5054392;28;20742;-72
2021/09/10 01:16:21;;;;;;;0.77;0.77;;;21.30;99.90;;;;;;5054033;28;20427;-72
2021/09/10 01:18:47;;;;;;;0.40;0.10;;;21.30;1.00;;;;;;5053799;28;20995;-72
2021/09/10 01:21:13;;;;;;;0.40;0.20;;;21.30;99.90;;;;;;5053969;28;20445;-72
2021/09/10 01:23:39;;;;;;;0.40;0.20;;;21.20;1.00;;;;;;5053832;28;20444;-72
2021/09/10 01:26:05;;;;;;;0.77;0.77;;;20.90;1.00;;;;;;5053823;28;20173;-72
2021/09/10 01:28:30;;;;;;;0.40;0.20;;;20.60;1.00;;;;;;5053740;28;20185;-72
2021/09/10 01:30:56;;;;;;;0.50;0.30;;;20.80;1.00;;;;;;5053858;28;20880;-72
2021/09/10 01:33:22;;;;;;;0.40;0.20;;;20.80;1.00;;;;;;5053692;28;20173;-72
2021/09/10 01:35:48;;;;;;;0.40;0.17;;;20.80;1.00;;;;;;5052839;28;20443;-69
2021/09/10 01:38:14;;;;;;;0.40;0.10;;;21.00;1.00;;;;;;5053726;28;20626;-72
2021/09/10 01:40:40;;;;;;;0.40;0.10;;;20.90;1.00;;;;;;5052898;28;20463;-69
2021/09/10 01:43:07;;;;;;;0.40;0.20;;;20.90;1.00;;;;;;5053569;28;20540;-69
2021/09/10 01:45:32;;;;;;;0.40;0.10;;;20.80;1.00;;;;;;5057570;28;20439;-69
2021/09/10 01:47:58;;;;;;;0.40;0.10;;;20.70;1.00;;;;;;5057577;28;20499;-69
2021/09/10 01:50:25;;;;;;;0.40;0.20;;;20.70;1.00;;;;;;5057425;28;20540;-69
2021/09/10 01:52:52;;;;;;;0.40;0.20;;;20.70;1.00;;;;;;5057536;28;20431;-69
2021/09/10 01:55:18;;;;;;;0.40;0.20;;;20.60;1.00;;;;;;5057632;28;20427;-69
2021/09/10 01:57:47;;;;;;;0.40;0.10;;;20.40;1.00;;;;;;5057480;28;20521;-69
2021/09/10 02:00:13;;;;;;;0.40;0.20;;;20.30;1.00;;;;;;5057461;28;20625;-71
2021/09/10 02:02:39;;;;;;;0.40;0.20;;;20.20;20.10;;;;;;5057396;28;20470;-72
2021/09/10 02:05:06;;;;;;;0.40;0.10;;;20.30;30.00;;;;;;5057383;28;20419;-72
2021/09/10 02:07:32;;;;;;;0.40;0.20;;;20.20;50.90;;;;;;5057270;28;20446;-72
2021/09/10 02:09:57;;;;;;;0.63;0.63;;;20.20;53.60;;;;;;5057578;28;20419;-69
2021/09/10 02:12:23;;;;;;;0.40;0.20;;;20.20;99.90;;;;;;5057558;28;20255;-69
2021/09/10 02:14:48;;;;;;;0.40;0.20;;;20.30;80.00;;;;;;5057153;28;20185;-69
2021/09/10 02:17:14;;;;;;;0.50;0.30;;;20.40;71.10;;;;;;5057023;28;20185;-69
2021/09/10 02:19:39;;;;;;;0.40;0.20;;;20.60;2.90;;;;;;5056933;28;20188;-69
2021/09/10 02:22:05;;;;;;;0.40;0.20;;;20.60;1.00;;;;;;5057045;28;20248;-69
2021/09/10 02:24:31;;;;;;;2.63;2.43;;;20.70;1.00;;;;;;5057049;28;20618;-69
2021/09/10 02:26:56;;;;;;;0.40;0.10;;;20.50;1.00;;;;;;5056946;28;20188;-69
2021/09/10 02:29:22;;;;;;;0.40;0.17;;;20.50;22.50;;;;;;5056803;28;20184;-69
2021/09/10 02:31:47;;;;;;;0.40;0.30;;;20.70;1.00;;;;;;5056904;28;20224;-69
2021/09/10 02:34:13;;;;;;;0.40;0.10;;;20.80;1.00;;;;;;5056859;28;20216;-69
2021/09/10 02:36:38;;;;;;;0.60;0.53;;;20.90;1.00;;;;;;5056765;28;20192;-69
2021/09/10 02:39:11;;;;;;;0.40;0.20;;;20.80;1.00;;;;;;5056604;28;20181;-69
2021/09/10 02:41:38;;;;;;;0.40;0.20;;;20.70;1.00;;;;;;5056749;28;20212;-69
2021/09/10 02:44:04;;;;;;;0.40;0.20;;;20.80;2.70;;;;;;5056836;28;20427;-69
2021/09/10 02:46:30;;;;;;;0.40;0.10;;;20.80;28.80;;;;;;5056530;28;20888;-69
2021/09/10 02:48:56;;;;;;;0.40;0.10;;;20.80;81.50;;;;;;5056465;28;20426;-69
2021/09/10 02:51:22;;;;;;;0.50;0.20;;;20.90;99.90;;;;;;5056738;28;20439;-71
2021/09/10 02:53:47;;;;;;;0.40;0.20;;;20.90;99.90;;;;;;5056834;28;20184;-72
2021/09/10 02:56:13;;;;;;;0.40;0.17;;;21.00;99.90;;;;;;5056320;28;20459;-72
2021/09/10 02:58:38;;;;;;;0.40;0.10;;;21.10;99.90;;;;;;5055247;28;20629;-72
2021/09/10 03:01:04;;;;;;;0.40;0.20;;;21.10;99.90;;;;;;5056239;28;20243;-72
2021/09/10 03:03:30;;;;;;;0.40;0.20;;;21.40;99.90;;;;;;5056453;28;20609;-72
2021/09/10 03:05:57;;;;;;;0.40;0.10;;;21.30;99.90;;;;;;5056502;28;20204;-72
2021/09/10 03:08:23;;;;;;;0.40;0.20;;;21.50;99.90;;;;;;5056035;28;20445;-72
2021/09/10 03:10:49;;;;;;;0.40;0.20;;;21.40;99.90;;;;;;5056150;28;20185;-72
2021/09/10 03:13:15;;;;;;;1.00;0.90;;;21.30;99.90;;;;;;5056266;28;20177;-72
2021/09/10 03:15:41;;;;;;;0.50;0.20;;;21.30;99.90;;;;;;5056100;28;20433;-72
2021/09/10 03:18:06;;;;;;;0.50;0.40;;;21.30;99.90;;;;;;5055921;28;20452;-71
2021/09/10 03:20:32;;;;;;;0.40;0.10;;;21.40;99.90;;;;;;5056111;28;20202;-72
2021/09/10 03:22:57;;;;;;;0.40;0.20;;;21.50;99.90;;;;;;5055977;28;20213;-72
2021/09/10 03:25:23;;;;;;;0.40;0.30;;;21.70;99.90;;;;;;5056010;28;20180;-72
2021/09/10 03:27:49;;;;;;;0.40;0.20;;;21.50;99.90;;;;;;5055702;28;20228;-72
2021/09/10 03:30:15;;;;;;;0.40;0.20;;;21.50;99.90;;;;;;5055788;28;20660;-72
2021/09/10 03:32:41;;;;;;;0.40;0.10;;;21.80;99.90;;;;;;5056048;28;20427;-72
2021/09/10 03:35:07;;;;;;;2.93;1.80;;;21.80;99.90;;;;;;5055863;28;20181;-72
2021/09/10 03:37:33;;;;;;;0.97;0.97;;;21.70;99.90;;;;;;5054620;28;20449;-72
2021/09/10 03:39:59;;;;;;;0.90;0.60;;;21.70;99.90;;;;;;5055435;28;20423;-72
2021/09/10 03:42:24;;;;;;;1.23;1.13;;;21.50;99.90;;;;;;5055467;28;20463;-72
2021/09/10 03:44:50;;;;;;;0.47;0.30;;;21.40;99.90;;;;;;5055400;28;20188;-72
2021/09/10 03:47:15;;;;;;;1.67;1.60;;;21.20;99.90;;;;;;5055335;28;20675;-71
2021/09/10 03:49:41;;;;;;;0.40;0.20;;;21.30;99.90;;;;;;5055289;28;20176;-72
2021/09/10 03:52:07;;;;;;;1.33;1.23;;;21.30;99.90;;;;;;5055468;28;20185;-71
2021/09/10 03:54:32;;;;;;;2.00;1.90;;;21.20;99.90;;;;;;5055252;28;20224;-72
2021/09/10 03:56:58;;;;;;;1.50;1.40;;;21.10;99.90;;;;;;5055063;28;20260;-72
2021/09/10 03:59:24;;;;;;;0.80;0.80;;;21.10;99.90;;;;;;5054920;28;20257;-72
2021/09/10 04:01:50;;;;;;;0.50;0.30;;;20.90;99.90;;;;;;5054212;28;20211;-72
2021/09/10 04:04:15;;;;;;;2.30;2.10;;;20.80;99.90;;;;;;5054378;28;20185;-72
2021/09/10 04:06:41;;;;;;;0.97;0.97;;;20.90;99.90;;;;;;5054418;28;20423;-72
2021/09/10 04:09:07;;;;;;;1.33;0.50;;;20.90;99.90;;;;;;5055329;28;20521;-71
2021/09/10 04:11:32;;;;;;;2.10;2.00;;;20.90;99.90;;;;;;5055461;28;20216;-71
2021/09/10 04:13:58;;;;;;;0.50;0.40;;;20.80;99.90;;;;;;5055294;28;20185;-73
2021/09/10 04:16:23;;;;;;;2.67;2.00;;;20.80;99.90;;;;;;5054732;28;20606;-69
2021/09/10 04:18:49;;;;;;;1.27;1.17;;;20.70;99.90;;;;;;5053582;28;20516;-72
2021/09/10 04:21:14;;;;;;;0.70;0.63;;;20.70;99.90;;;;;;5053440;28;20242;-72
2021/09/10 04:23:41;;;;;;;1.90;1.33;;;20.70;99.90;;;;;;5054419;28;20176;-72
2021/09/10 04:26:07;;;;;;;1.27;1.17;;;20.70;99.90;;;;;;5054493;28;20570;-72
2021/09/10 04:28:33;;;;;;;2.90;2.33;;;20.70;99.90;;;;;;5053201;28;20427;-72
2021/09/10 04:30:58;;;;;;;4.10;3.03;;;20.70;99.90;;;;;;5054387;28;20751;-69
2021/09/10 04:33:24;;;;;;;0.83;0.80;;;20.70;99.90;;;;;;5054504;28;20535;-69
2021/09/10 04:35:50;;;;;;;2.30;1.80;;;20.60;99.90;;;;;;5054422;28;20184;-71
2021/09/10 04:38:15;;;;;;;2.20;1.27;;;20.60;99.90;;;;;;5054295;28;20528;-71
2021/09/10 04:40:41;;;;;;;1.27;1.17;;;20.70;99.90;;;;;;5054309;28;20446;-72
2021/09/10 04:43:07;;;;;;;0.40;0.20;;;20.70;99.90;;;;;;5053215;28;20656;-72
2021/09/10 04:45:32;;;;;;;3.70;3.37;;;20.70;99.90;;;;;;5054168;28;20259;-72
2021/09/10 04:47:58;;;;;;;0.40;0.20;;;20.70;99.90;;;;;;5054184;28;20185;-71
2021/09/10 04:50:23;;;;;;;1.60;0.53;;;20.70;99.90;;;;;;5054068;28;20172;-72
2021/09/10 04:52:49;;;;;;;0.53;0.33;;;20.80;99.90;;;;;;5054193;28;20323;-72
2021/09/10 04:55:14;;;;;;;0.40;0.20;;;20.90;99.90;;;;;;5054454;28;20177;-72
2021/09/10 04:57:41;;;;;;;0.50;0.20;;;20.90;99.90;;;;;;5053968;28;20176;-71
2021/09/10 05:00:07;;;;;;;0.40;0.10;;;20.90;99.90;;;;;;5054442;28;20185;-72
2021/09/10 05:02:33;;;;;;;0.40;0.20;;;21.10;99.90;;;;;;5053995;28;20466;-72
2021/09/10 05:04:58;;;;;;;1.43;1.33;;;21.20;99.90;;;;;;5053991;28;20423;-72
2021/09/10 05:07:24;;;;;;;0.40;0.20;;;21.20;99.90;;;;;;5054006;28;20223;-72
2021/09/10 05:09:50;;;;;;;0.40;0.20;;;21.40;99.90;;;;;;5053908;28;20644;-72
2021/09/10 05:12:15;;;;;;;0.40;0.10;;;21.60;99.90;;;;;;5052958;28;20618;-72
2021/09/10 05:14:42;;;;;;;1.30;1.20;;;21.60;99.90;;;;;;5054086;28;20462;-72
2021/09/10 05:17:07;;;;;;;0.40;0.20;;;21.30;99.90;;;;;;5053828;28;20177;-72
2021/09/10 05:19:33;;;;;;;0.40;0.23;;;21.20;99.90;;;;;;5053239;28;20449;-72
2021/09/10 05:21:59;;;;;;;1.17;0.67;;;20.90;99.90;;;;;;5053752;28;20204;-72
2021/09/10 05:24:24;;;;;;;1.17;0.93;;;20.70;99.90;;;;;;5053696;28;20180;-72
2021/09/10 05:26:50;;;;;;;1.80;1.70;;;20.80;99.90;;;;;;5053530;28;20187;-72
2021/09/10 05:29:15;;;;;;;0.90;0.60;;;20.70;99.90;;;;;;5053418;28;20186;-72
2021/09/10 05:31:41;;;;;;;0.50;0.30;;;20.80;99.90;;;;;;5053604;28;20260;-69
2021/09/10 05:34:07;;;;;;;0.73;0.70;;;20.90;99.90;;;;;;5053420;28;20255;-72
2021/09/10 05:36:32;;;;;;;0.63;0.60;;;21.10;99.90;;;;;;5053410;28;20173;-72
2021/09/10 05:38:58;;;;;;;0.40;0.23;;;21.30;99.90;;;;;;5052367;28;20190;-72
2021/09/10 05:41:24;;;;;;;0.70;0.70;;;21.30;99.90;;;;;;5053518;28;20172;-69
2021/09/10 05:43:49;;;;;;;0.50;0.30;;;21.30;99.90;;;;;;5053415;28;20529;-70
2021/09/10 05:46:15;;;;;;;0.40;0.20;;;21.40;99.90;;;;;;5052280;28;20521;-69
2021/09/10 05:48:40;;;;;;;0.40;0.20;;;21.40;99.90;;;;;;5052983;28;20191;-69
2021/09/10 05:51:08;;;;;;;1.47;1.37;;;21.60;99.90;;;;;;5053523;28;20562;-69
2021/09/10 05:53:33;;;;;;;0.40;0.20;;;21.40;99.90;;;;;;5053272;28;20272;-69
2021/09/10 05:55:59;;;;;;;0.40;0.20;;;21.50;99.90;;;;;;5053417;28;20510;-69
2021/09/10 05:58:25;;;;;;;0.50;0.20;;;21.60;99.90;;;;;;5051944;28;20200;-70
2021/09/10 06:00:50;;;;;;;1.33;0.60;;;21.80;99.90;;;;;;5052922;28;20517;-71
2021/09/10 06:03:16;;;;;;;0.53;0.53;;;21.50;99.90;;;;;;5053212;28;20227;-73
2021/09/10 06:05:41;;;;;;;0.50;0.50;;;21.30;99.90;;;;;;5053149;28;20181;-72
2021/09/10 06:08:07;;;;;;;0.50;0.40;;;21.10;99.90;;;;;;5051908;28;20177;-72
2021/09/10 06:10:33;;;;;;;0.47;0.10;;;21.00;99.90;;;;;;5053291;28;20225;-73
2021/09/10 06:12:58;;;;;;;0.40;0.20;;;20.90;99.90;;;;;;5053163;28;20196;-72
2021/09/10 06:15:26;;;;;;;0.50;0.47;;;20.90;99.90;;;;;;5052942;28;20645;-72
2021/09/10 06:17:52;;;;;;;1.37;0.27;;;20.90;99.90;;;;;;5053113;28;20240;-72
2021/09/10 06:20:18;;;;;;;0.40;0.20;;;20.90;99.90;;;;;;5053124;28;20463;-72
2021/09/10 06:22:43;;;;;;;1.87;1.63;;;20.70;99.90;;;;;;5053185;28;20259;-72
2021/09/10 06:25:09;;;;;;;3.57;0.73;;;20.50;99.90;;;;;;5052120;28;20181;-72
2021/09/10 06:27:37;;;;;;;2.20;1.13;;;20.40;99.90;;;;;;5052962;28;20189;-71
2021/09/10 06:30:12;;;;;;;0.63;0.63;;;20.70;99.90;;;;;;5054201;28;20926;-71
2021/09/10 06:32:38;;;;;;;0.53;0.47;;;20.80;99.90;;;;;;5056557;28;20422;-72
2021/09/10 06:35:05;;;;;;;1.03;0.93;;;20.90;99.90;;;;;;5055604;28;20985;-72
2021/09/10 06:37:30;;;;;;;2.33;2.23;;;20.80;99.90;;;;;;5056562;28;20192;-72
2021/09/10 06:39:56;;;;;;;11.67;11.00;;;20.70;99.90;;;;;;5056523;28;20427;-71
2021/09/10 06:42:21;;;;;;;0.40;0.20;;;20.60;99.90;;;;;;5055556;28;20278;-72
2021/09/10 06:44:50;;;;;;;1.87;1.70;;;20.70;99.90;;;;;;5056590;28;20610;-72
2021/09/10 06:47:16;;;;;;;1.73;1.63;;;20.70;99.90;;;;;;5056463;28;20169;-72
2021/09/10 06:49:42;;;;;;;0.40;0.20;;;20.80;99.90;;;;;;5055181;28;20434;-72
2021/09/10 06:52:07;;;;;;;1.90;1.63;;;20.80;99.90;;;;;;5056278;28;20535;-71
2021/09/10 06:54:33;;;;;;;0.40;0.27;;;20.50;99.90;;;;;;5056298;28;20709;-72
2021/09/10 06:56:58;;;;;;;0.40;0.10;;;20.10;99.90;;;;;;5056348;28;20209;-72
2021/09/10 06:59:24;;;;;;;0.40;0.20;;;20.00;99.90;;;;;;5056313;28;20641;-73
2021/09/10 07:01:49;;;;;;;0.60;0.43;;;20.20;99.90;;;;;;5055750;28;20294;-72
2021/09/10 07:04:15;;;;;;;0.40;0.20;;;20.10;99.90;;;;;;5056257;28;20207;-71
2021/09/10 07:06:41;;;;;;;0.60;0.20;;;20.40;99.90;;;;;;5055952;28;20636;-72
2021/09/10 07:09:06;;;;;;;2.20;2.10;;;20.80;99.90;;;;;;5056282;28;20234;-71
2021/09/10 07:11:33;;;;;;;0.40;0.10;;;21.10;99.90;;;;;;5056233;28;20173;-72
2021/09/10 07:14:03;;;;;;;0.40;0.20;;;21.30;99.90;;;;;;5056172;28;20180;-72
2021/09/10 07:16:30;;;;;;;2.63;2.50;;;21.50;99.90;;;;;;5055989;28;20419;-72
2021/09/10 07:18:55;;;;;;;0.40;0.20;;;21.50;99.90;;;;;;5056036;28;20431;-72
2021/09/10 07:21:21;;;;;;;0.40;0.20;;;21.10;99.90;;;;;;5055921;28;20434;-72
2021/09/10 07:23:47;;;;;;;0.40;0.20;;;20.80;99.90;;;;;;5055890;28;20184;-72
2021/09/10 07:26:12;;;;;;;0.40;0.10;;;20.70;99.90;;;;;;5055870;28;20184;-72
2021/09/10 07:28:39;;;;;;;0.40;0.20;;;21.00;99.90;;;;;;5055781;28;20345;-72
2021/09/10 07:31:05;;;;;;;0.40;0.20;;;20.80;99.90;;;;;;5055769;28;20432;-70
2021/09/10 07:33:35;;;;;;;1.70;0.83;;;20.40;99.90;;;;;;5055679;28;20825;-70
2021/09/10 07:36:01;;;;;;;0.40;0.20;;;20.40;99.90;;;;;;5055826;28;20766;-70
2021/09/10 07:38:27;;;;;;;0.97;0.97;;;20.30;99.90;;;;;;5055293;28;20454;-69
2021/09/10 07:40:52;;;;;;;0.40;0.17;;;20.60;99.90;;;;;;5055373;28;20432;-70
2021/09/10 07:43:18;;;;;;;0.40;0.20;;;20.70;99.90;;;;;;5054033;28;20251;-69
2021/09/10 07:45:44;;;;;;;1.70;1.60;;;20.50;99.90;;;;;;5055426;28;20666;-71
2021/09/10 07:48:09;;;;;;;0.70;0.67;;;20.40;99.90;;;;;;5055016;28;20506;-71
2021/09/10 07:50:35;;;;;;;1.27;1.17;;;20.40;99.90;;;;;;5055135;28;20215;-69
2021/09/10 07:53:00;;;;;;;0.40;0.30;;;20.40;99.90;;;;;;5055417;28;20518;-71
2021/09/10 07:55:26;;;;;;;0.77;0.77;;;20.40;99.90;;;;;;5055291;28;20525;-71
2021/09/10 07:57:51;;;;;;;0.40;0.10;;;20.60;99.90;;;;;;5055049;28;20196;-72
2021/09/10 08:00:21;;;;;;;0.40;0.20;;;20.80;99.90;;;;;;5055446;28;20191;-71
2021/09/10 08:02:46;;;;;;;0.40;0.20;;;20.90;99.90;;;;;;5054862;28;20204;-72
2021/09/10 08:05:12;;;;;;;0.50;0.43;;;20.90;99.90;;;;;;5054046;28;20429;-71
2021/09/10 08:07:38;;;;;;;0.40;0.20;;;20.80;99.90;;;;;;5054791;28;20180;-71
2021/09/10 08:10:04;;;;;;;0.40;0.20;;;20.90;99.90;;;;;;5055100;28;20621;-71
2021/09/10 08:12:29;;;;;;;0.40;0.10;;;20.90;99.90;;;;;;5055219;28;20184;-71
2021/09/10 08:14:55;;;;;;;0.40;0.20;;;21.20;99.90;;;;;;5053912;28;20431;-71
2021/09/10 08:17:21;;;;;;;2.10;1.37;;;21.20;99.90;;;;;;5054916;28;20258;-72
2021/09/10 08:19:49;;;;;;;0.40;0.20;;;21.00;99.90;;;;;;5054823;28;20920;-71
2021/09/10 08:22:15;;;;;;;1.23;1.13;;;20.90;99.90;;;;;;5054749;28;20467;-72
2021/09/10 08:24:41;;;;;;;0.40;0.20;;;20.90;99.90;;;;;;5054751;28;20465;-72
2021/09/10 08:27:06;;;;;;;0.40;0.20;;;20.80;99.90;;;;;;5054400;28;20458;-71
2021/09/10 08:29:32;;;;;;;0.50;0.20;;;20.60;99.90;;;;;;5054584;28;20181;-71
2021/09/10 08:31:57;;;;;;;0.50;0.30;;;20.40;99.90;;;;;;5053870;28;20176;-71
2021/09/10 08:34:23;;;;;;;4.17;2.23;;;20.50;99.90;;;;;;5053656;28;20181;-72
2021/09/10 08:36:48;;;;;;;0.40;0.20;;;20.70;99.90;;;;;;5054726;28;20234;-71
2021/09/10 08:39:14;;;;;;;0.40;0.20;;;20.50;99.90;;;;;;5055260;28;20181;-71
2021/09/10 08:41:41;;;;;;;0.40;0.20;;;20.50;99.90;;;;;;5054524;28;20236;-70
2021/09/10 08:44:07;;;;;;;0.50;0.30;;;20.60;99.90;;;;;;5054315;28;20621;-69
2021/09/10 08:46:37;;;;;;;0.40;0.20;;;20.40;99.90;;;;;;5054499;28;20420;-70
2021/09/10 08:49:04;;;;;;;0.40;0.20;;;20.40;99.90;;;;;;5054633;28;20254;-71
2021/09/10 08:51:30;;;;;;;0.40;0.20;;;20.60;99.90;;;;;;5053832;28;20457;-71
2021/09/10 08:53:56;;;;;;;0.40;0.20;;;20.60;99.90;;;;;;5053276;28;20952;-71
2021/09/10 08:56:21;;;;;;;0.40;0.10;;;20.70;99.90;;;;;;5054266;28;20188;-69
2021/09/10 08:58:47;;;;;;;0.40;0.20;;;20.50;99.90;;;;;;5053794;28;20192;-71
2021/09/10 09:01:12;;;;;;;0.40;0.10;;;20.10;99.90;;;;;;5053936;28;20577;-70
2021/09/10 09:03:38;;;;;;;0.40;0.30;;;19.80;99.90;;;;;;5053951;28;20728;-71
2021/09/10 09:06:03;;;;;;;0.40;0.20;;;19.80;99.90;;;;;;5053874;28;20207;-69
2021/09/10 09:08:29;;;;;;;0.40;0.20;;;19.70;99.90;;;;;;5053750;28;20173;-71
2021/09/10 09:10:57;;;;;;;0.40;0.20;;;20.10;99.90;;;;;;5053832;28;20169;-72
2021/09/10 09:13:29;;;;;;;0.40;0.20;;;20.40;99.90;;;;;;5053911;28;20177;-72
2021/09/10 09:16:17;;;;;;;0.40;0.20;;;20.30;99.90;;;;;;5053988;28;20438;-72
2021/09/10 09:18:45;;;;;;;0.40;0.20;;;20.30;99.90;;;;;;5053544;28;20983;-72
2021/09/10 09:21:11;;;;;;;0.40;0.20;;;19.90;99.90;;;;;;5052725;28;20492;-72
2021/09/10 09:23:37;;;;;;;0.50;0.43;;;20.00;99.90;;;;;;5053685;28;20463;-72
2021/09/10 09:26:20;;;;;;;0.40;0.20;;;20.00;99.90;;;;;;5053708;28;20443;-72
2021/09/10 09:28:47;;;;;;;0.40;0.20;;;19.90;99.90;;;;;;5053533;28;20200;-72
2021/09/10 09:31:17;;;;;;;0.40;0.10;;;19.70;99.90;;;;;;5053643;28;20419;-72
2021/09/10 09:33:47;;;;;;;0.40;0.20;;;19.90;99.90;;;;;;5053844;28;20745;-72
2021/09/10 09:36:16;;;;;;;0.40;0.20;;;20.00;99.90;;;;;;5053616;28;20427;-71
2021/09/10 09:38:43;;;;;;;0.40;0.20;;;20.20;99.90;;;;;;5053667;28;20763;-71
2021/09/10 09:41:18;;;;;;;0.40;0.20;;;20.40;99.90;;;;;;5053765;28;20438;-71
2021/09/10 09:43:46;;;;;;;0.40;0.20;;;20.60;99.90;;;;;;5053470;28;20466;-72
2021/09/10 09:46:14;;;;;;;0.40;0.20;;;20.80;99.90;;;;;;5053648;28;20838;-72
2021/09/10 09:48:43;;;;;;;0.40;0.20;;;21.00;99.90;;;;;;5053592;28;20509;-72
2021/09/10 09:51:14;;;;;;;0.40;0.20;;;20.90;99.90;;;;;;5053945;28;20493;-72
2021/09/10 09:53:40;;;;;;;0.40;0.10;;;20.70;99.90;;;;;;5052861;28;20419;-72
2021/09/10 09:56:08;;;;;;;0.40;0.20;;;20.60;99.90;;;;;;5053566;28;20432;-72
2021/09/10 09:58:34;;;;;;;0.40;0.23;;;20.80;99.90;;;;;;5053327;28;20506;-71
2021/09/10 10:01:00;;;;;;;0.40;0.20;;;21.00;99.90;;;;;;5053285;28;20895;-72
2021/09/10 10:03:26;;;;;;;0.40;0.20;;;21.10;99.90;;;;;;5053332;28;20471;-72
2021/09/10 10:06:06;;;;;;;0.40;0.20;;;21.30;99.90;;;;;;5056154;28;20832;-72
2021/09/10 10:08:56;;;;;;;0.40;0.20;;;21.50;99.90;;;;;;5057496;28;20762;-72
2021/09/10 10:11:25;;;;;;;0.40;0.10;;;21.80;99.90;;;;;;5057287;28;20481;-72
2021/09/10 10:13:59;;;;;;;0.40;0.20;;;21.90;99.90;;;;;;5057359;28;20423;-72
2021/09/10 10:16:39;;;;;;;40.53;22.57;;;22.10;99.90;;;;;;5055989;28;20536;-72
2021/09/10 10:19:33;;;;;;;0.40;0.20;;;22.10;99.90;;;;;;5056958;28;20425;-72
2021/09/10 10:22:01;;;;;;;0.40;0.10;;;22.00;99.90;;;;;;5054606;28;20584;-71
2021/09/10 10:24:48;;;;;;;0.40;0.20;;;22.00;99.90;;;;;;5057044;28;20446;-72
2021/09/10 10:27:32;;;;;;;0.40;0.20;;;22.30;99.90;;;;;;5056997;28;20414;-72
2021/09/10 10:29:59;;;;;;;0.40;0.10;;;22.40;99.90;;;;;;5055805;28;20910;-72
2021/09/10 10:32:50;;;;;;;0.67;0.57;;;22.40;99.90;;;;;;5056769;28;20511;-72
2021/09/10 10:35:23;;;;;;;0.40;0.17;;;22.60;99.90;;;;;;5056813;28;20434;-71
2021/09/10 10:38:05;;;;;;;0.40;0.10;;;22.70;99.90;;;;;;5056777;28;20446;-71
2021/09/10 10:40:34;;;;;;;0.50;0.50;;;22.90;99.90;;;;;;5056643;28;20435;-71
2021/09/10 10:43:03;;;;;;;0.40;0.30;;;23.10;99.90;;;;;;5056706;28;20912;-71
2021/09/10 10:45:41;;;;;;;0.40;0.20;;;22.70;99.90;;;;;;5055595;28;20521;-72
2021/09/10 10:48:34;;;;;;;4.53;1.20;;;22.40;99.90;;;;;;5056457;28;20411;-72
2021/09/10 10:51:24;;;;;;;0.63;0.57;;;22.40;99.90;;;;;;5055454;28;20435;-71
2021/09/10 10:53:52;;;;;;;0.50;0.30;;;22.20;99.90;;;;;;5052309;28;20423;-72
2021/09/10 10:56:21;;;;;;;0.50;0.37;;;22.10;99.90;;;;;;5056367;28;20892;-72
2021/09/10 10:59:13;;;;;;;1.47;1.17;;;22.10;99.90;;;;;;5055831;28;20483;-72
2021/09/10 11:02:16;;;;;;;0.50;0.30;;;21.60;99.90;;;;;;5055521;28;20903;-72
2021/09/10 11:04:49;;;;;;;0.67;0.53;;;21.90;99.90;;;;;;5056058;28;20495;-72
2021/09/10 11:07:19;;;;;;;1.70;0.30;;;22.00;99.90;;;;;;5054986;28;20838;-72
2021/09/10 11:09:58;;;;;;;0.40;0.10;;;22.10;99.90;;;;;;5055884;28;20415;-72
2021/09/10 11:12:25;;;;;;;0.40;0.20;;;22.40;99.90;;;;;;5056275;28;20484;-72
2021/09/10 11:14:50;;;;;;;0.40;0.20;;;22.90;99.90;;;;;;5055940;28;20430;-72
2021/09/10 11:17:16;;;;;;;0.40;0.20;;;23.40;99.90;;;;;;5054551;28;20415;-71
2021/09/10 11:19:46;;;;;;;0.40;0.20;;;23.80;99.90;;;;;;5055714;28;20201;-72
2021/09/10 11:22:12;;;;;;;1.80;1.70;;;23.60;28.70;;;;;;5055853;28;20330;-73
2021/09/10 11:24:38;;;;;;;0.50;0.30;;;23.30;99.90;;;;;;5055877;28;20426;-72
2021/09/10 11:27:27;;;;;;;0.40;0.20;;;23.20;99.90;;;;;;5055566;28;20427;-72
2021/09/10 11:29:53;;;;;;;0.40;0.10;;;23.20;99.90;;;;;;5055723;28;20751;-72
2021/09/10 11:32:21;;;;;;;0.40;0.27;;;23.20;99.90;;;;;;5055750;28;20423;-72
2021/09/10 11:34:46;;;;;;;0.40;0.10;;;23.20;99.90;;;;;;5055744;28;20900;-72
2021/09/10 11:37:12;;;;;;;0.40;0.20;;;23.80;99.90;;;;;;5055493;28;20468;-72
2021/09/10 11:39:44;;;;;;;0.50;0.20;;;24.10;44.10;;;;;;5055215;28;20177;-72
2021/09/10 11:42:10;;;;;;;2.00;1.90;;;24.40;1.00;;;;;;5054074;28;20292;-72
2021/09/10 11:44:37;;;;;;;0.50;0.40;;;24.50;1.00;;;;;;5055540;28;20835;-71
2021/09/10 11:47:03;;;;;;;0.40;0.20;;;24.30;1.00;;;;;;5055666;28;20477;-72
2021/09/10 11:49:29;;;;;;;0.57;0.57;;;24.60;1.00;;;;;;5055421;28;20427;-72
2021/09/10 11:51:55;;;;;;;0.90;0.90;;;24.90;1.00;;;;;;5054482;28;20437;-72
2021/09/10 11:54:21;;;;;;;0.50;0.30;;;25.10;1.00;;;;;;5054443;28;20177;-72
2021/09/10 11:56:48;;;;;;;0.40;0.20;;;25.50;99.90;;;;;;5055611;28;20428;-72
2021/09/10 11:59:26;;;;;;;0.40;0.20;;;25.50;99.90;;;;;;5055041;28;20455;-72
2021/09/10 12:01:53;;;;;;;0.40;0.20;;;25.40;99.90;;;;;;5055050;28;20521;-72
2021/09/10 12:04:29;;;;;;;0.80;0.50;;;25.10;99.90;;;;;;5055175;28;20462;-71
2021/09/10 12:07:00;;;;;;;0.40;0.17;;;25.50;99.90;;;;;;5055027;28;20435;-72
2021/09/10 12:09:28;;;;;;;0.40;0.10;;;25.60;99.90;;;;;;5055097;28;20459;-71
2021/09/10 12:12:12;;;;;;;0.40;0.10;;;25.90;8.30;;;;;;5054963;28;20501;-72
2021/09/10 12:14:53;;;;;;;0.40;0.20;;;26.60;1.00;;;;;;5054169;28;20512;-70
2021/09/10 12:17:24;;;;;;;0.50;0.40;;;26.60;1.00;;;;;;5054601;28;20419;-70
2021/09/10 12:19:59;;;;;;;0.40;0.20;;;25.90;99.90;;;;;;5054862;28;21119;-70
2021/09/10 12:22:31;;;;;;;1.27;1.03;;;25.30;1.00;;;;;;5054786;28;20853;-70
2021/09/10 12:25:26;;;;;;;0.50;0.30;;;24.90;1.00;;;;;;5054763;28;20420;-70
2021/09/10 12:27:57;;;;;;;0.40;0.20;;;24.60;38.10;;;;;;5054381;28;20493;-70
2021/09/10 12:30:25;;;;;;;0.40;0.20;;;23.80;1.00;;;;;;5054667;28;20584;-70
2021/09/10 12:32:51;;;;;;;0.40;0.20;;;23.60;1.00;;;;;;5055558;28;20427;-70
2021/09/10 12:35:17;;;;;;;0.87;0.40;;;23.80;1.00;;;;;;5054473;28;20434;-70
2021/09/10 12:37:52;;;;;;;1.07;1.07;;;24.00;1.00;;;;;;5054335;28;20429;-70
2021/09/10 12:40:18;;;;;;;0.40;0.20;;;24.10;99.90;;;;;;5054351;28;20826;-70
2021/09/10 12:42:43;;;;;;;0.40;0.20;;;24.10;99.90;;;;;;5054735;28;20466;-70
2021/09/10 12:45:09;;;;;;;0.40;0.20;;;24.50;1.00;;;;;;5054376;28;20477;-70
2021/09/10 12:47:35;;;;;;;0.50;0.20;;;24.70;99.90;;;;;;5054302;28;20169;-70
2021/09/10 12:50:00;;;;;;;0.40;0.20;;;25.10;99.90;;;;;;5054309;28;20602;-70